sensor_id;sensor_type;location;lat;lon;timestamp;temperature;humidity
4201;DHT22;2114;50.398;8.814;2022-12-18T00:04:49;-5.00;99.90
4201;DHT22;2114;50.398;8.814;2022-12-18T00:09:49;-5.00;99.90
4201;DHT22;2114;50.398;8.814;2022-12-18T00:14:50;-5.00;99.90
4201;DHT22;2114;50.398;8.814;2022-12-18T00:19:50;-5.10;99.90
4201;DHT22;2114;50.398;8.814;2022-12-18T00:24:51;-5.20;99.90
4201;DHT22;2114;50.398;8.814;2022-12-18T00:29:51;-5.10;99.90
4201;DHT22;2114;50.398;8.814;2022-12-18T00:34:52;-5.20;99.90
4201;DHT22;2114;50.398;8.814;2022-12-18T00:39:53;-5.30;99.90
4201;DHT22;2114;50.398;8.814;2022-12-18T00:44:53;-5.40;99.90
4201;DHT22;2114;50.398;8.814;2022-12-18T00:49:54;-5.50;99.90
4201;DHT22;2114;50.398;8.814;2022-12-18T00:54:54;-5.60;99.90
4201;DHT22;2114;50.398;8.814;2022-12-18T00:59:55;-5.70;99.90
4201;DHT22;2114;50.398;8.814;2022-12-18T01:04:55;-5.80;99.90
4201;DHT22;2114;50.398;8.814;2022-12-18T01:09:56;-5.80;99.90
4201;DHT22;2114;50.398;8.814;2022-12-18T01:14:57;-5.90;99.90
4201;DHT22;2114;50.398;8.814;2022-12-18T01:19:58;-6.00;99.90
4201;DHT22;2114;50.398;8.814;2022-12-18T01:24:58;-6.20;99.90
4201;DHT22;2114;50.398;8.814;2022-12-18T01:29:59;-6.30;99.90
4201;DHT22;2114;50.398;8.814;2022-12-18T01:34:59;-6.40;99.90
4201;DHT22;2114;50.398;8.814;2022-12-18T01:40:00;-6.50;99.90
4201;DHT22;2114;50.398;8.814;2022-12-18T01:50:19;-6.70;99.90
4201;DHT22;2114;50.398;8.814;2022-12-18T01:55:24;-6.80;99.90
4201;DHT22;2114;50.398;8.814;2022-12-18T02:00:26;-6.80;99.90
4201;DHT22;2114;50.398;8.814;2022-12-18T02:11:14;-6.90;99.90
4201;DHT22;2114;50.398;8.814;2022-12-18T02:26:47;-7.10;99.90
4201;DHT22;2114;50.398;8.814;2022-12-18T02:31:52;-7.20;99.90
4201;DHT22;2114;50.398;8.814;2022-12-18T02:36:54;-7.30;99.90
4201;DHT22;2114;50.398;8.814;2022-12-18T02:41:57;-7.30;99.90
4201;DHT22;2114;50.398;8.814;2022-12-18T02:46:58;-7.40;99.90
4201;DHT22;2114;50.398;8.814;2022-12-18T03:02:55;-7.50;99.90
4201;DHT22;2114;50.398;8.814;2022-12-18T03:13:15;-7.70;99.90
4201;DHT22;2114;50.398;8.814;2022-12-18T03:18:34;-7.60;99.90
4201;DHT22;2114;50.398;8.814;2022-12-18T03:23:40;-7.70;99.90
4201;DHT22;2114;50.398;8.814;2022-12-18T03:28:46;-7.70;99.90
4201;DHT22;2114;50.398;8.814;2022-12-18T03:34:01;-7.80;99.90
4201;DHT22;2114;50.398;8.814;2022-12-18T03:39:03;-7.80;99.90
4201;DHT22;2114;50.398;8.814;2022-12-18T03:44:14;-7.90;99.90
4201;DHT22;2114;50.398;8.814;2022-12-18T03:54:34;-8.00;99.90
4201;DHT22;2114;50.398;8.814;2022-12-18T03:59:37;-8.00;99.90
4201;DHT22;2114;50.398;8.814;2022-12-18T04:04:39;-8.00;99.90
4201;DHT22;2114;50.398;8.814;2022-12-18T04:09:43;-8.10;99.90
4201;DHT22;2114;50.398;8.814;2022-12-18T04:14:45;-8.10;99.90
4201;DHT22;2114;50.398;8.814;2022-12-18T04:19:46;-8.20;99.90
4201;DHT22;2114;50.398;8.814;2022-12-18T04:24:47;-8.20;99.90
4201;DHT22;2114;50.398;8.814;2022-12-18T04:29:47;-8.20;99.90
4201;DHT22;2114;50.398;8.814;2022-12-18T04:34:48;-8.20;99.90
4201;DHT22;2114;50.398;8.814;2022-12-18T04:39:48;-8.30;99.90
4201;DHT22;2114;50.398;8.814;2022-12-18T04:44:49;-8.30;99.90
4201;DHT22;2114;50.398;8.814;2022-12-18T04:49:49;-8.40;99.90
4201;DHT22;2114;50.398;8.814;2022-12-18T04:54:50;-8.40;99.90
4201;DHT22;2114;50.398;8.814;2022-12-18T04:59:50;-8.50;99.90
4201;DHT22;2114;50.398;8.814;2022-12-18T05:04:51;-8.50;99.90
4201;DHT22;2114;50.398;8.814;2022-12-18T05:09:52;-8.50;99.90
4201;DHT22;2114;50.398;8.814;2022-12-18T05:14:52;-8.60;99.90
4201;DHT22;2114;50.398;8.814;2022-12-18T05:19:53;-8.50;99.90
4201;DHT22;2114;50.398;8.814;2022-12-18T05:24:53;-8.60;99.90
4201;DHT22;2114;50.398;8.814;2022-12-18T05:29:54;-8.60;99.90
4201;DHT22;2114;50.398;8.814;2022-12-18T05:34:54;-8.70;99.90
4201;DHT22;2114;50.398;8.814;2022-12-18T05:39:57;-8.70;99.90
4201;DHT22;2114;50.398;8.814;2022-12-18T05:44:58;-8.80;99.90
4201;DHT22;2114;50.398;8.814;2022-12-18T05:49:58;-8.80;99.90
4201;DHT22;2114;50.398;8.814;2022-12-18T05:54:59;-8.80;99.90
4201;DHT22;2114;50.398;8.814;2022-12-18T05:59:59;-8.80;99.90
4201;DHT22;2114;50.398;8.814;2022-12-18T06:05:00;-8.80;99.90
4201;DHT22;2114;50.398;8.814;2022-12-18T06:10:00;-8.90;99.90
4201;DHT22;2114;50.398;8.814;2022-12-18T06:15:01;-8.90;99.90
4201;DHT22;2114;50.398;8.814;2022-12-18T06:20:02;-8.90;99.90
4201;DHT22;2114;50.398;8.814;2022-12-18T06:25:04;-8.90;99.90
4201;DHT22;2114;50.398;8.814;2022-12-18T06:30:06;-9.00;99.90
4201;DHT22;2114;50.398;8.814;2022-12-18T06:35:07;-9.00;99.90
4201;DHT22;2114;50.398;8.814;2022-12-18T06:40:08;-9.00;99.90
4201;DHT22;2114;50.398;8.814;2022-12-18T06:45:09;-9.00;99.90
4201;DHT22;2114;50.398;8.814;2022-12-18T06:50:11;-9.00;99.90
4201;DHT22;2114;50.398;8.814;2022-12-18T06:55:12;-9.10;99.90
4201;DHT22;2114;50.398;8.814;2022-12-18T07:00:12;-9.10;99.90
4201;DHT22;2114;50.398;8.814;2022-12-18T07:05:13;-9.10;99.90
4201;DHT22;2114;50.398;8.814;2022-12-18T07:10:14;-9.20;99.90
4201;DHT22;2114;50.398;8.814;2022-12-18T07:15:15;-9.20;99.90
4201;DHT22;2114;50.398;8.814;2022-12-18T07:20:15;-9.20;99.90
4201;DHT22;2114;50.398;8.814;2022-12-18T07:25:16;-9.20;99.90
4201;DHT22;2114;50.398;8.814;2022-12-18T07:30:17;-9.20;99.90
4201;DHT22;2114;50.398;8.814;2022-12-18T07:35:17;-9.20;99.90
4201;DHT22;2114;50.398;8.814;2022-12-18T07:40:19;-9.20;99.90
4201;DHT22;2114;50.398;8.814;2022-12-18T07:45:19;-9.10;99.90
4201;DHT22;2114;50.398;8.814;2022-12-18T07:50:20;-9.10;99.90
4201;DHT22;2114;50.398;8.814;2022-12-18T07:55:20;-9.10;99.90
4201;DHT22;2114;50.398;8.814;2022-12-18T08:00:21;-9.20;99.90
4201;DHT22;2114;50.398;8.814;2022-12-18T08:05:21;-9.20;99.90
4201;DHT22;2114;50.398;8.814;2022-12-18T08:10:22;-9.10;99.90
4201;DHT22;2114;50.398;8.814;2022-12-18T08:15:23;-9.10;99.90
4201;DHT22;2114;50.398;8.814;2022-12-18T08:20:24;-9.10;99.90
4201;DHT22;2114;50.398;8.814;2022-12-18T08:25:24;-9.00;99.90
4201;DHT22;2114;50.398;8.814;2022-12-18T08:30:25;-9.00;99.90
4201;DHT22;2114;50.398;8.814;2022-12-18T08:35:26;-8.90;99.90
4201;DHT22;2114;50.398;8.814;2022-12-18T08:40:27;-8.90;99.90
4201;DHT22;2114;50.398;8.814;2022-12-18T08:45:27;-8.80;99.90
4201;DHT22;2114;50.398;8.814;2022-12-18T08:50:28;-8.70;99.90
4201;DHT22;2114;50.398;8.814;2022-12-18T08:55:29;-8.60;99.90
4201;DHT22;2114;50.398;8.814;2022-12-18T09:00:29;-8.50;99.90
4201;DHT22;2114;50.398;8.814;2022-12-18T09:05:30;-8.40;99.90
4201;DHT22;2114;50.398;8.814;2022-12-18T09:10:31;-8.30;99.90
4201;DHT22;2114;50.398;8.814;2022-12-18T09:15:32;-8.10;99.90
4201;DHT22;2114;50.398;8.814;2022-12-18T09:20:33;-7.90;99.90
4201;DHT22;2114;50.398;8.814;2022-12-18T09:25:34;-7.70;99.90
4201;DHT22;2114;50.398;8.814;2022-12-18T09:30:44;-7.50;99.90
4201;DHT22;2114;50.398;8.814;2022-12-18T09:35:45;-7.30;99.90
4201;DHT22;2114;50.398;8.814;2022-12-18T09:40:52;-7.10;99.90
4201;DHT22;2114;50.398;8.814;2022-12-18T09:45:59;-6.90;99.90
4201;DHT22;2114;50.398;8.814;2022-12-18T09:51:30;-6.70;99.90
4201;DHT22;2114;50.398;8.814;2022-12-18T09:56:37;-6.50;99.90
4201;DHT22;2114;50.398;8.814;2022-12-18T10:01:40;-6.20;99.90
4201;DHT22;2114;50.398;8.814;2022-12-18T10:07:09;-6.00;99.90
4201;DHT22;2114;50.398;8.814;2022-12-18T10:12:52;-5.60;99.90
4201;DHT22;2114;50.398;8.814;2022-12-18T10:28:36;-5.20;99.90
4201;DHT22;2114;50.398;8.814;2022-12-18T10:33:37;-4.90;99.90
4201;DHT22;2114;50.398;8.814;2022-12-18T10:38:38;-4.90;99.90
4201;DHT22;2114;50.398;8.814;2022-12-18T10:43:39;-4.80;99.90
4201;DHT22;2114;50.398;8.814;2022-12-18T10:48:52;-4.60;99.90
4201;DHT22;2114;50.398;8.814;2022-12-18T10:54:17;-4.40;99.90
4201;DHT22;2114;50.398;8.814;2022-12-18T10:59:18;-4.30;99.90
4201;DHT22;2114;50.398;8.814;2022-12-18T11:04:29;-4.20;99.90
4201;DHT22;2114;50.398;8.814;2022-12-18T11:09:43;-4.20;99.90
4201;DHT22;2114;50.398;8.814;2022-12-18T11:14:47;-4.30;99.90
4201;DHT22;2114;50.398;8.814;2022-12-18T11:20:50;-4.30;99.90
4201;DHT22;2114;50.398;8.814;2022-12-18T11:25:21;-4.10;99.90
4201;DHT22;2114;50.398;8.814;2022-12-18T11:30:31;-4.10;99.90
4201;DHT22;2114;50.398;8.814;2022-12-18T11:40:58;-4.10;99.90
4201;DHT22;2114;50.398;8.814;2022-12-18T11:46:04;-3.90;99.90
4201;DHT22;2114;50.398;8.814;2022-12-18T11:51:11;-3.80;99.90
4201;DHT22;2114;50.398;8.814;2022-12-18T11:56:39;-3.80;99.90
4201;DHT22;2114;50.398;8.814;2022-12-18T12:07:24;-3.60;99.90
4201;DHT22;2114;50.398;8.814;2022-12-18T12:18:04;-3.60;99.90
4201;DHT22;2114;50.398;8.814;2022-12-18T12:29:00;-3.70;99.90
4201;DHT22;2114;50.398;8.814;2022-12-18T12:34:22;-3.60;99.90
4201;DHT22;2114;50.398;8.814;2022-12-18T12:39:31;-3.60;99.90
4201;DHT22;2114;50.398;8.814;2022-12-18T12:44:39;-3.60;99.90
4201;DHT22;2114;50.398;8.814;2022-12-18T12:49:44;-3.60;99.90
4201;DHT22;2114;50.398;8.814;2022-12-18T13:00:07;-3.70;99.90
4201;DHT22;2114;50.398;8.814;2022-12-18T13:05:33;-3.70;99.90
4201;DHT22;2114;50.398;8.814;2022-12-18T13:10:40;-3.80;99.90
4201;DHT22;2114;50.398;8.814;2022-12-18T13:30:57;-3.90;99.90
4201;DHT22;2114;50.398;8.814;2022-12-18T13:46:20;-4.00;99.90
4201;DHT22;2114;50.398;8.814;2022-12-18T13:51:22;-4.00;99.90
4201;DHT22;2114;50.398;8.814;2022-12-18T13:56:30;-4.00;99.90
4201;DHT22;2114;50.398;8.814;2022-12-18T14:01:31;-4.00;99.90
4201;DHT22;2114;50.398;8.814;2022-12-18T14:06:32;-4.10;99.90
4201;DHT22;2114;50.398;8.814;2022-12-18T14:11:32;-4.10;99.90
4201;DHT22;2114;50.398;8.814;2022-12-18T14:16:34;-4.10;99.90
4201;DHT22;2114;50.398;8.814;2022-12-18T14:21:34;-4.20;99.90
4201;DHT22;2114;50.398;8.814;2022-12-18T14:26:37;-4.20;99.90
4201;DHT22;2114;50.398;8.814;2022-12-18T14:31:38;-4.30;99.90
4201;DHT22;2114;50.398;8.814;2022-12-18T14:36:38;-4.30;99.90
4201;DHT22;2114;50.398;8.814;2022-12-18T14:41:40;-4.30;99.90
4201;DHT22;2114;50.398;8.814;2022-12-18T14:46:46;-4.30;99.90
4201;DHT22;2114;50.398;8.814;2022-12-18T14:51:55;-4.30;99.90
4201;DHT22;2114;50.398;8.814;2022-12-18T14:57:23;-4.40;99.90
4201;DHT22;2114;50.398;8.814;2022-12-18T15:02:28;-4.40;99.90
4201;DHT22;2114;50.398;8.814;2022-12-18T15:07:47;-4.30;99.90
4201;DHT22;2114;50.398;8.814;2022-12-18T15:13:08;-4.40;99.90
4201;DHT22;2114;50.398;8.814;2022-12-18T15:28:39;-4.50;99.90
4201;DHT22;2114;50.398;8.814;2022-12-18T15:38:55;-4.50;99.90
4201;DHT22;2114;50.398;8.814;2022-12-18T15:43:56;-4.50;99.90
4201;DHT22;2114;50.398;8.814;2022-12-18T15:48:57;-4.50;99.90
4201;DHT22;2114;50.398;8.814;2022-12-18T15:54:00;-4.50;99.90
4201;DHT22;2114;50.398;8.814;2022-12-18T15:59:01;-4.50;99.90
4201;DHT22;2114;50.398;8.814;2022-12-18T16:04:02;-4.60;99.90
4201;DHT22;2114;50.398;8.814;2022-12-18T16:09:04;-4.60;99.90
4201;DHT22;2114;50.398;8.814;2022-12-18T16:14:21;-4.60;99.90
4201;DHT22;2114;50.398;8.814;2022-12-18T16:19:22;-4.60;99.90
4201;DHT22;2114;50.398;8.814;2022-12-18T16:24:28;-4.60;99.90
4201;DHT22;2114;50.398;8.814;2022-12-18T16:29:29;-4.60;99.90
4201;DHT22;2114;50.398;8.814;2022-12-18T16:34:31;-4.60;99.90
4201;DHT22;2114;50.398;8.814;2022-12-18T16:39:34;-4.60;99.90
4201;DHT22;2114;50.398;8.814;2022-12-18T16:44:34;-4.70;99.90
4201;DHT22;2114;50.398;8.814;2022-12-18T16:49:35;-4.70;99.90
4201;DHT22;2114;50.398;8.814;2022-12-18T16:54:36;-4.70;99.90
4201;DHT22;2114;50.398;8.814;2022-12-18T16:59:36;-4.70;99.90
4201;DHT22;2114;50.398;8.814;2022-12-18T17:04:37;-4.60;99.90
4201;DHT22;2114;50.398;8.814;2022-12-18T17:09:39;-4.70;99.90
4201;DHT22;2114;50.398;8.814;2022-12-18T17:14:39;-4.70;99.90
4201;DHT22;2114;50.398;8.814;2022-12-18T17:19:40;-4.60;99.90
4201;DHT22;2114;50.398;8.814;2022-12-18T17:24:40;-4.70;99.90
4201;DHT22;2114;50.398;8.814;2022-12-18T17:29:41;-4.70;99.90
4201;DHT22;2114;50.398;8.814;2022-12-18T17:34:42;-4.60;99.90
4201;DHT22;2114;50.398;8.814;2022-12-18T17:39:43;-4.60;99.90
4201;DHT22;2114;50.398;8.814;2022-12-18T17:44:43;-4.60;99.90
4201;DHT22;2114;50.398;8.814;2022-12-18T17:49:44;-4.60;99.90
4201;DHT22;2114;50.398;8.814;2022-12-18T17:54:45;-4.60;99.90
4201;DHT22;2114;50.398;8.814;2022-12-18T17:59:45;-4.60;99.90
4201;DHT22;2114;50.398;8.814;2022-12-18T18:04:46;-4.60;99.90
4201;DHT22;2114;50.398;8.814;2022-12-18T18:09:46;-4.60;99.90
4201;DHT22;2114;50.398;8.814;2022-12-18T18:14:47;-4.50;99.90
4201;DHT22;2114;50.398;8.814;2022-12-18T18:19:48;-4.60;99.90
4201;DHT22;2114;50.398;8.814;2022-12-18T18:24:48;-4.60;99.90
4201;DHT22;2114;50.398;8.814;2022-12-18T18:29:49;-4.60;99.90
4201;DHT22;2114;50.398;8.814;2022-12-18T18:34:49;-4.60;99.90
4201;DHT22;2114;50.398;8.814;2022-12-18T18:39:50;-4.60;99.90
4201;DHT22;2114;50.398;8.814;2022-12-18T18:44:50;-4.60;99.90
4201;DHT22;2114;50.398;8.814;2022-12-18T18:49:51;-4.60;99.90
4201;DHT22;2114;50.398;8.814;2022-12-18T18:54:52;-4.60;99.90
4201;DHT22;2114;50.398;8.814;2022-12-18T18:59:52;-4.60;99.90
4201;DHT22;2114;50.398;8.814;2022-12-18T19:04:53;-4.60;99.90
4201;DHT22;2114;50.398;8.814;2022-12-18T19:09:53;-4.60;99.90
4201;DHT22;2114;50.398;8.814;2022-12-18T19:14:54;-4.60;99.90
4201;DHT22;2114;50.398;8.814;2022-12-18T19:19:55;-4.60;99.90
4201;DHT22;2114;50.398;8.814;2022-12-18T19:24:55;-4.60;99.90
4201;DHT22;2114;50.398;8.814;2022-12-18T19:29:56;-4.60;99.90
4201;DHT22;2114;50.398;8.814;2022-12-18T19:34:56;-4.60;99.90
4201;DHT22;2114;50.398;8.814;2022-12-18T19:39:58;-4.60;99.90
4201;DHT22;2114;50.398;8.814;2022-12-18T19:44:58;-4.50;99.90
4201;DHT22;2114;50.398;8.814;2022-12-18T19:49:59;-4.50;99.90
4201;DHT22;2114;50.398;8.814;2022-12-18T19:55:00;-4.50;99.90
4201;DHT22;2114;50.398;8.814;2022-12-18T20:00:00;-4.50;99.90
4201;DHT22;2114;50.398;8.814;2022-12-18T20:05:06;-4.40;99.90
4201;DHT22;2114;50.398;8.814;2022-12-18T20:10:12;-4.40;99.90
4201;DHT22;2114;50.398;8.814;2022-12-18T20:15:14;-4.40;99.90
4201;DHT22;2114;50.398;8.814;2022-12-18T20:20:15;-4.40;99.90
4201;DHT22;2114;50.398;8.814;2022-12-18T20:25:15;-4.40;99.90
4201;DHT22;2114;50.398;8.814;2022-12-18T20:30:16;-4.40;99.90
4201;DHT22;2114;50.398;8.814;2022-12-18T20:35:16;-4.40;99.90
4201;DHT22;2114;50.398;8.814;2022-12-18T20:40:17;-4.40;99.90
4201;DHT22;2114;50.398;8.814;2022-12-18T20:45:18;-4.40;99.90
4201;DHT22;2114;50.398;8.814;2022-12-18T20:50:18;-4.40;99.90
4201;DHT22;2114;50.398;8.814;2022-12-18T20:55:19;-4.40;99.90
4201;DHT22;2114;50.398;8.814;2022-12-18T21:00:21;-4.30;99.90
4201;DHT22;2114;50.398;8.814;2022-12-18T21:05:21;-4.40;99.90
4201;DHT22;2114;50.398;8.814;2022-12-18T21:10:22;-4.30;99.90
4201;DHT22;2114;50.398;8.814;2022-12-18T21:15:22;-4.30;99.90
4201;DHT22;2114;50.398;8.814;2022-12-18T21:20:23;-4.30;99.90
4201;DHT22;2114;50.398;8.814;2022-12-18T21:25:23;-4.30;99.90
4201;DHT22;2114;50.398;8.814;2022-12-18T21:30:24;-4.30;99.90
4201;DHT22;2114;50.398;8.814;2022-12-18T21:35:24;-4.20;99.90
4201;DHT22;2114;50.398;8.814;2022-12-18T21:40:25;-4.20;99.90
4201;DHT22;2114;50.398;8.814;2022-12-18T21:45:25;-4.20;99.90
4201;DHT22;2114;50.398;8.814;2022-12-18T21:50:26;-4.20;99.90
4201;DHT22;2114;50.398;8.814;2022-12-18T21:55:27;-4.20;99.90
4201;DHT22;2114;50.398;8.814;2022-12-18T22:00:27;-4.10;99.90
4201;DHT22;2114;50.398;8.814;2022-12-18T22:05:28;-4.10;99.90
4201;DHT22;2114;50.398;8.814;2022-12-18T22:10:28;-4.10;99.90
4201;DHT22;2114;50.398;8.814;2022-12-18T22:15:29;-4.10;99.90
4201;DHT22;2114;50.398;8.814;2022-12-18T22:20:29;-4.10;99.90
4201;DHT22;2114;50.398;8.814;2022-12-18T22:25:30;-4.00;99.90
4201;DHT22;2114;50.398;8.814;2022-12-18T22:30:30;-4.00;99.90
4201;DHT22;2114;50.398;8.814;2022-12-18T22:35:31;-4.00;99.90
4201;DHT22;2114;50.398;8.814;2022-12-18T22:40:31;-4.00;99.90
4201;DHT22;2114;50.398;8.814;2022-12-18T22:45:32;-4.00;99.90
4201;DHT22;2114;50.398;8.814;2022-12-18T22:50:33;-3.90;99.90
4201;DHT22;2114;50.398;8.814;2022-12-18T22:55:33;-3.90;99.90
4201;DHT22;2114;50.398;8.814;2022-12-18T23:00:34;-3.90;99.90
4201;DHT22;2114;50.398;8.814;2022-12-18T23:05:34;-3.90;99.90
4201;DHT22;2114;50.398;8.814;2022-12-18T23:10:38;-3.90;99.90
4201;DHT22;2114;50.398;8.814;2022-12-18T23:15:41;-3.80;99.90
4201;DHT22;2114;50.398;8.814;2022-12-18T23:20:42;-3.80;99.90
4201;DHT22;2114;50.398;8.814;2022-12-18T23:25:43;-3.80;99.90
4201;DHT22;2114;50.398;8.814;2022-12-18T23:30:43;-3.80;99.90
4201;DHT22;2114;50.398;8.814;2022-12-18T23:35:44;-3.80;99.90
4201;DHT22;2114;50.398;8.814;2022-12-18T23:40:44;-3.70;99.90
4201;DHT22;2114;50.398;8.814;2022-12-18T23:45:45;-3.70;99.90
4201;DHT22;2114;50.398;8.814;2022-12-18T23:50:45;-3.70;99.90
4201;DHT22;2114;50.398;8.814;2022-12-18T23:55:46;-3.70;99.90
